sensor_id;sensor_type;location;lat;lon;timestamp;temperature;humidity
53204;DHT22;39086;54.424;18.456;2022-07-23T00:02:44;16.40;99.90
53204;DHT22;39086;54.424;18.456;2022-07-23T00:03:46;16.40;99.90
53204;DHT22;39086;54.424;18.456;2022-07-23T00:04:50;16.30;99.90
53204;DHT22;39086;54.424;18.456;2022-07-23T00:05:52;16.50;99.90
53204;DHT22;39086;54.424;18.456;2022-07-23T00:07:03;16.40;99.90
53204;DHT22;39086;54.424;18.456;2022-07-23T00:08:05;16.50;99.90
53204;DHT22;39086;54.424;18.456;2022-07-23T00:09:12;16.50;99.90
53204;DHT22;39086;54.424;18.456;2022-07-23T00:10:23;16.30;99.90
53204;DHT22;39086;54.424;18.456;2022-07-23T00:11:27;16.30;99.90
53204;DHT22;39086;54.424;18.456;2022-07-23T00:12:29;16.30;99.90
53204;DHT22;39086;54.424;18.456;2022-07-23T00:13:32;16.30;99.90
53204;DHT22;39086;54.424;18.456;2022-07-23T00:14:41;16.30;99.90
53204;DHT22;39086;54.424;18.456;2022-07-23T00:15:44;16.30;99.90
53204;DHT22;39086;54.424;18.456;2022-07-23T00:16:47;16.30;99.90
53204;DHT22;39086;54.424;18.456;2022-07-23T00:17:51;16.30;99.90
53204;DHT22;39086;54.424;18.456;2022-07-23T00:19:07;16.50;99.90
53204;DHT22;39086;54.424;18.456;2022-07-23T00:20:23;16.40;99.90
53204;DHT22;39086;54.424;18.456;2022-07-23T00:21:32;16.40;99.90
53204;DHT22;39086;54.424;18.456;2022-07-23T00:22:35;16.40;99.90
53204;DHT22;39086;54.424;18.456;2022-07-23T00:23:38;16.30;99.90
53204;DHT22;39086;54.424;18.456;2022-07-23T00:24:41;16.20;99.90
53204;DHT22;39086;54.424;18.456;2022-07-23T00:26:11;16.30;99.90
53204;DHT22;39086;54.424;18.456;2022-07-23T00:27:15;16.40;99.90
53204;DHT22;39086;54.424;18.456;2022-07-23T00:28:24;16.40;99.90
53204;DHT22;39086;54.424;18.456;2022-07-23T00:29:27;16.30;99.90
53204;DHT22;39086;54.424;18.456;2022-07-23T00:30:31;16.30;99.90
53204;DHT22;39086;54.424;18.456;2022-07-23T00:31:34;16.30;99.90
53204;DHT22;39086;54.424;18.456;2022-07-23T00:32:45;16.30;99.90
53204;DHT22;39086;54.424;18.456;2022-07-23T00:33:57;16.40;99.90
53204;DHT22;39086;54.424;18.456;2022-07-23T00:35:03;16.30;99.90
53204;DHT22;39086;54.424;18.456;2022-07-23T00:36:06;16.50;99.90
53204;DHT22;39086;54.424;18.456;2022-07-23T00:37:10;16.30;99.90
53204;DHT22;39086;54.424;18.456;2022-07-23T00:38:12;16.40;99.90
53204;DHT22;39086;54.424;18.456;2022-07-23T00:39:22;16.30;99.90
53204;DHT22;39086;54.424;18.456;2022-07-23T00:40:26;16.50;99.90
53204;DHT22;39086;54.424;18.456;2022-07-23T00:41:31;16.50;99.90
53204;DHT22;39086;54.424;18.456;2022-07-23T00:42:33;16.40;99.90
53204;DHT22;39086;54.424;18.456;2022-07-23T00:43:36;16.40;99.90
53204;DHT22;39086;54.424;18.456;2022-07-23T00:44:45;16.40;99.90
53204;DHT22;39086;54.424;18.456;2022-07-23T00:45:49;16.50;99.90
53204;DHT22;39086;54.424;18.456;2022-07-23T00:46:54;16.40;99.90
53204;DHT22;39086;54.424;18.456;2022-07-23T00:47:57;16.60;99.90
53204;DHT22;39086;54.424;18.456;2022-07-23T00:49:00;16.40;99.90
53204;DHT22;39086;54.424;18.456;2022-07-23T00:50:11;16.50;99.90
53204;DHT22;39086;54.424;18.456;2022-07-23T00:51:14;16.50;99.90
53204;DHT22;39086;54.424;18.456;2022-07-23T00:52:19;16.50;99.90
53204;DHT22;39086;54.424;18.456;2022-07-23T00:53:21;16.60;99.90
53204;DHT22;39086;54.424;18.456;2022-07-23T00:54:26;16.50;99.90
53204;DHT22;39086;54.424;18.456;2022-07-23T00:55:35;16.60;99.90
53204;DHT22;39086;54.424;18.456;2022-07-23T00:56:41;16.50;99.90
53204;DHT22;39086;54.424;18.456;2022-07-23T00:57:44;16.70;99.90
53204;DHT22;39086;54.424;18.456;2022-07-23T00:58:48;16.80;99.90
53204;DHT22;39086;54.424;18.456;2022-07-23T00:59:51;16.60;99.90
53204;DHT22;39086;54.424;18.456;2022-07-23T01:01:01;16.80;99.90
53204;DHT22;39086;54.424;18.456;2022-07-23T01:02:05;16.80;99.90
53204;DHT22;39086;54.424;18.456;2022-07-23T01:03:07;16.80;99.90
53204;DHT22;39086;54.424;18.456;2022-07-23T01:04:11;16.80;99.90
53204;DHT22;39086;54.424;18.456;2022-07-23T01:05:13;16.90;99.90
53204;DHT22;39086;54.424;18.456;2022-07-23T01:06:23;16.90;99.90
53204;DHT22;39086;54.424;18.456;2022-07-23T01:07:26;16.80;99.90
53204;DHT22;39086;54.424;18.456;2022-07-23T01:08:36;16.80;99.90
53204;DHT22;39086;54.424;18.456;2022-07-23T01:09:38;16.90;99.90
53204;DHT22;39086;54.424;18.456;2022-07-23T01:10:42;16.90;99.90
53204;DHT22;39086;54.424;18.456;2022-07-23T01:11:45;17.00;99.90
53204;DHT22;39086;54.424;18.456;2022-07-23T01:12:49;16.80;99.90
53204;DHT22;39086;54.424;18.456;2022-07-23T01:13:58;16.80;99.90
53204;DHT22;39086;54.424;18.456;2022-07-23T01:15:01;16.90;99.90
53204;DHT22;39086;54.424;18.456;2022-07-23T01:16:04;16.90;99.90
53204;DHT22;39086;54.424;18.456;2022-07-23T01:17:14;16.90;99.90
53204;DHT22;39086;54.424;18.456;2022-07-23T01:18:17;16.90;99.90
53204;DHT22;39086;54.424;18.456;2022-07-23T01:19:27;17.00;99.90
53204;DHT22;39086;54.424;18.456;2022-07-23T01:20:29;16.90;99.90
53204;DHT22;39086;54.424;18.456;2022-07-23T01:21:36;17.00;99.90
53204;DHT22;39086;54.424;18.456;2022-07-23T01:22:47;16.90;99.90
53204;DHT22;39086;54.424;18.456;2022-07-23T01:23:50;17.10;99.90
53204;DHT22;39086;54.424;18.456;2022-07-23T01:24:52;17.10;99.90
53204;DHT22;39086;54.424;18.456;2022-07-23T01:25:56;17.00;99.90
53204;DHT22;39086;54.424;18.456;2022-07-23T01:26:58;16.90;99.90
53204;DHT22;39086;54.424;18.456;2022-07-23T01:28:08;17.00;99.90
53204;DHT22;39086;54.424;18.456;2022-07-23T01:29:12;17.00;99.90
53204;DHT22;39086;54.424;18.456;2022-07-23T01:30:14;16.70;99.90
53204;DHT22;39086;54.424;18.456;2022-07-23T01:31:18;16.90;99.90
53204;DHT22;39086;54.424;18.456;2022-07-23T01:32:21;17.10;99.90
53204;DHT22;39086;54.424;18.456;2022-07-23T01:33:31;16.90;99.90
53204;DHT22;39086;54.424;18.456;2022-07-23T01:34:34;17.00;99.90
53204;DHT22;39086;54.424;18.456;2022-07-23T01:36:46;16.90;99.90
53204;DHT22;39086;54.424;18.456;2022-07-23T01:37:50;16.90;99.90
53204;DHT22;39086;54.424;18.456;2022-07-23T01:38:54;16.80;99.90
53204;DHT22;39086;54.424;18.456;2022-07-23T01:40:05;16.90;99.90
53204;DHT22;39086;54.424;18.456;2022-07-23T01:41:08;16.90;99.90
53204;DHT22;39086;54.424;18.456;2022-07-23T01:42:12;16.90;99.90
53204;DHT22;39086;54.424;18.456;2022-07-23T01:43:15;16.80;99.90
53204;DHT22;39086;54.424;18.456;2022-07-23T01:44:28;16.80;99.90
53204;DHT22;39086;54.424;18.456;2022-07-23T01:45:31;16.70;99.90
53204;DHT22;39086;54.424;18.456;2022-07-23T01:46:35;16.80;99.90
53204;DHT22;39086;54.424;18.456;2022-07-23T01:47:37;16.50;99.90
53204;DHT22;39086;54.424;18.456;2022-07-23T01:48:41;16.50;99.90
53204;DHT22;39086;54.424;18.456;2022-07-23T01:49:49;16.70;99.90
53204;DHT22;39086;54.424;18.456;2022-07-23T01:50:52;16.60;99.90
53204;DHT22;39086;54.424;18.456;2022-07-23T01:51:55;16.60;99.90
53204;DHT22;39086;54.424;18.456;2022-07-23T01:53:06;16.40;99.90
53204;DHT22;39086;54.424;18.456;2022-07-23T01:54:08;16.40;99.90
53204;DHT22;39086;54.424;18.456;2022-07-23T01:55:18;16.40;99.90
53204;DHT22;39086;54.424;18.456;2022-07-23T01:56:21;16.30;99.90
53204;DHT22;39086;54.424;18.456;2022-07-23T01:57:24;16.30;99.90
53204;DHT22;39086;54.424;18.456;2022-07-23T01:58:27;16.40;99.90
53204;DHT22;39086;54.424;18.456;2022-07-23T01:59:36;16.50;99.90
53204;DHT22;39086;54.424;18.456;2022-07-23T02:00:41;16.40;99.90
53204;DHT22;39086;54.424;18.456;2022-07-23T02:01:43;16.30;99.90
53204;DHT22;39086;54.424;18.456;2022-07-23T02:02:47;16.30;99.90
53204;DHT22;39086;54.424;18.456;2022-07-23T02:03:49;16.20;99.90
53204;DHT22;39086;54.424;18.456;2022-07-23T02:04:59;16.30;99.90
53204;DHT22;39086;54.424;18.456;2022-07-23T02:06:01;16.20;99.90
53204;DHT22;39086;54.424;18.456;2022-07-23T02:07:05;16.20;99.90
53204;DHT22;39086;54.424;18.456;2022-07-23T02:08:09;16.10;99.90
53204;DHT22;39086;54.424;18.456;2022-07-23T02:09:12;16.10;99.90
53204;DHT22;39086;54.424;18.456;2022-07-23T02:10:22;16.10;99.90
53204;DHT22;39086;54.424;18.456;2022-07-23T02:11:25;16.00;99.90
53204;DHT22;39086;54.424;18.456;2022-07-23T02:12:34;16.00;99.90
53204;DHT22;39086;54.424;18.456;2022-07-23T02:13:37;16.00;99.90
53204;DHT22;39086;54.424;18.456;2022-07-23T02:14:40;16.10;99.90
53204;DHT22;39086;54.424;18.456;2022-07-23T02:15:45;16.10;99.90
53204;DHT22;39086;54.424;18.456;2022-07-23T02:16:54;16.00;99.90
53204;DHT22;39086;54.424;18.456;2022-07-23T02:17:58;16.00;99.90
53204;DHT22;39086;54.424;18.456;2022-07-23T02:19:00;16.10;99.90
53204;DHT22;39086;54.424;18.456;2022-07-23T02:20:17;16.00;99.90
53204;DHT22;39086;54.424;18.456;2022-07-23T02:21:19;16.00;99.90
53204;DHT22;39086;54.424;18.456;2022-07-23T02:22:29;16.00;99.90
53204;DHT22;39086;54.424;18.456;2022-07-23T02:23:33;16.10;99.90
53204;DHT22;39086;54.424;18.456;2022-07-23T02:24:36;16.00;99.90
53204;DHT22;39086;54.424;18.456;2022-07-23T02:25:38;16.10;99.90
53204;DHT22;39086;54.424;18.456;2022-07-23T02:26:48;16.20;99.90
53204;DHT22;39086;54.424;18.456;2022-07-23T02:27:51;16.20;99.90
53204;DHT22;39086;54.424;18.456;2022-07-23T02:28:54;16.00;99.90
53204;DHT22;39086;54.424;18.456;2022-07-23T02:29:57;16.00;99.90
53204;DHT22;39086;54.424;18.456;2022-07-23T02:30:59;16.10;99.90
53204;DHT22;39086;54.424;18.456;2022-07-23T02:32:09;16.10;99.90
53204;DHT22;39086;54.424;18.456;2022-07-23T02:33:12;16.10;99.90
53204;DHT22;39086;54.424;18.456;2022-07-23T02:34:15;16.20;99.90
53204;DHT22;39086;54.424;18.456;2022-07-23T02:35:17;16.10;99.90
53204;DHT22;39086;54.424;18.456;2022-07-23T02:36:21;16.20;99.90
53204;DHT22;39086;54.424;18.456;2022-07-23T02:37:31;16.10;99.90
53204;DHT22;39086;54.424;18.456;2022-07-23T02:38:36;16.10;99.90
53204;DHT22;39086;54.424;18.456;2022-07-23T02:39:38;16.20;99.90
53204;DHT22;39086;54.424;18.456;2022-07-23T02:40:42;16.00;99.90
53204;DHT22;39086;54.424;18.456;2022-07-23T02:41:44;16.00;99.90
53204;DHT22;39086;54.424;18.456;2022-07-23T02:42:54;16.10;99.90
53204;DHT22;39086;54.424;18.456;2022-07-23T02:43:56;16.10;99.90
53204;DHT22;39086;54.424;18.456;2022-07-23T02:44:59;16.00;99.90
53204;DHT22;39086;54.424;18.456;2022-07-23T02:46:02;16.00;99.90
53204;DHT22;39086;54.424;18.456;2022-07-23T02:47:05;16.10;99.90
53204;DHT22;39086;54.424;18.456;2022-07-23T02:48:14;16.00;99.90
53204;DHT22;39086;54.424;18.456;2022-07-23T02:49:24;16.10;99.90
53204;DHT22;39086;54.424;18.456;2022-07-23T02:50:26;16.00;99.90
53204;DHT22;39086;54.424;18.456;2022-07-23T02:51:30;16.20;99.90
53204;DHT22;39086;54.424;18.456;2022-07-23T02:52:32;16.10;99.90
53204;DHT22;39086;54.424;18.456;2022-07-23T02:53:37;16.00;99.90
53204;DHT22;39086;54.424;18.456;2022-07-23T02:54:45;16.00;99.90
53204;DHT22;39086;54.424;18.456;2022-07-23T02:55:48;16.00;99.90
53204;DHT22;39086;54.424;18.456;2022-07-23T02:56:51;16.20;99.90
53204;DHT22;39086;54.424;18.456;2022-07-23T02:57:54;16.00;99.90
53204;DHT22;39086;54.424;18.456;2022-07-23T02:59:03;16.00;99.90
53204;DHT22;39086;54.424;18.456;2022-07-23T03:00:08;16.20;99.90
53204;DHT22;39086;54.424;18.456;2022-07-23T03:01:10;16.10;99.90
53204;DHT22;39086;54.424;18.456;2022-07-23T03:02:14;16.00;99.90
53204;DHT22;39086;54.424;18.456;2022-07-23T03:03:16;16.00;99.90
53204;DHT22;39086;54.424;18.456;2022-07-23T03:04:31;15.90;99.90
53204;DHT22;39086;54.424;18.456;2022-07-23T03:05:33;16.10;99.90
53204;DHT22;39086;54.424;18.456;2022-07-23T03:06:43;16.00;99.90
53204;DHT22;39086;54.424;18.456;2022-07-23T03:07:45;16.00;99.90
53204;DHT22;39086;54.424;18.456;2022-07-23T03:08:50;16.20;99.90
53204;DHT22;39086;54.424;18.456;2022-07-23T03:09:52;16.10;99.90
53204;DHT22;39086;54.424;18.456;2022-07-23T03:10:56;16.00;99.90
53204;DHT22;39086;54.424;18.456;2022-07-23T03:12:05;16.10;99.90
53204;DHT22;39086;54.424;18.456;2022-07-23T03:13:15;16.10;99.90
53204;DHT22;39086;54.424;18.456;2022-07-23T03:14:17;16.20;99.90
53204;DHT22;39086;54.424;18.456;2022-07-23T03:15:21;16.00;99.90
53204;DHT22;39086;54.424;18.456;2022-07-23T03:16:30;16.00;99.90
53204;DHT22;39086;54.424;18.456;2022-07-23T03:17:33;16.10;99.90
53204;DHT22;39086;54.424;18.456;2022-07-23T03:18:42;16.30;99.90
53204;DHT22;39086;54.424;18.456;2022-07-23T03:19:59;16.10;99.90
53204;DHT22;39086;54.424;18.456;2022-07-23T03:21:01;16.20;99.90
53204;DHT22;39086;54.424;18.456;2022-07-23T03:22:05;16.30;99.90
53204;DHT22;39086;54.424;18.456;2022-07-23T03:23:07;16.10;99.90
53204;DHT22;39086;54.424;18.456;2022-07-23T03:24:18;16.10;99.90
53204;DHT22;39086;54.424;18.456;2022-07-23T03:25:27;16.20;99.90
53204;DHT22;39086;54.424;18.456;2022-07-23T03:26:31;16.10;99.90
53204;DHT22;39086;54.424;18.456;2022-07-23T03:27:33;16.10;99.90
53204;DHT22;39086;54.424;18.456;2022-07-23T03:28:36;16.20;99.90
53204;DHT22;39086;54.424;18.456;2022-07-23T03:29:45;16.10;99.90
53204;DHT22;39086;54.424;18.456;2022-07-23T03:30:48;16.30;99.90
53204;DHT22;39086;54.424;18.456;2022-07-23T03:31:58;16.10;99.90
53204;DHT22;39086;54.424;18.456;2022-07-23T03:33:00;15.80;99.90
53204;DHT22;39086;54.424;18.456;2022-07-23T03:34:04;16.10;99.90
53204;DHT22;39086;54.424;18.456;2022-07-23T03:35:07;15.90;99.90
53204;DHT22;39086;54.424;18.456;2022-07-23T03:36:10;16.10;99.90
53204;DHT22;39086;54.424;18.456;2022-07-23T03:37:23;15.90;99.90
53204;DHT22;39086;54.424;18.456;2022-07-23T03:38:25;15.90;99.90
53204;DHT22;39086;54.424;18.456;2022-07-23T03:39:30;16.00;99.90
53204;DHT22;39086;54.424;18.456;2022-07-23T03:40:32;16.00;99.90
53204;DHT22;39086;54.424;18.456;2022-07-23T03:41:36;16.20;99.90
53204;DHT22;39086;54.424;18.456;2022-07-23T03:42:44;16.30;99.90
53204;DHT22;39086;54.424;18.456;2022-07-23T03:43:54;16.10;99.90
53204;DHT22;39086;54.424;18.456;2022-07-23T03:44:56;16.10;99.90
53204;DHT22;39086;54.424;18.456;2022-07-23T03:45:59;16.10;99.90
53204;DHT22;39086;54.424;18.456;2022-07-23T03:47:02;16.00;99.90
53204;DHT22;39086;54.424;18.456;2022-07-23T03:48:12;16.20;99.90
53204;DHT22;39086;54.424;18.456;2022-07-23T03:49:14;16.10;99.90
53204;DHT22;39086;54.424;18.456;2022-07-23T03:50:18;16.00;99.90
53204;DHT22;39086;54.424;18.456;2022-07-23T03:51:20;16.20;99.90
53204;DHT22;39086;54.424;18.456;2022-07-23T03:52:23;16.00;99.90
53204;DHT22;39086;54.424;18.456;2022-07-23T03:53:32;16.00;99.90
53204;DHT22;39086;54.424;18.456;2022-07-23T03:54:36;16.10;99.90
53204;DHT22;39086;54.424;18.456;2022-07-23T03:55:39;16.10;99.90
53204;DHT22;39086;54.424;18.456;2022-07-23T03:56:42;15.90;99.90
53204;DHT22;39086;54.424;18.456;2022-07-23T03:57:44;16.10;99.90
53204;DHT22;39086;54.424;18.456;2022-07-23T03:58:54;16.10;99.90
53204;DHT22;39086;54.424;18.456;2022-07-23T03:59:57;16.00;99.90
53204;DHT22;39086;54.424;18.456;2022-07-23T04:01:00;16.00;99.90
53204;DHT22;39086;54.424;18.456;2022-07-23T04:02:02;16.10;99.90
53204;DHT22;39086;54.424;18.456;2022-07-23T04:03:06;16.00;99.90
53204;DHT22;39086;54.424;18.456;2022-07-23T04:04:15;16.00;99.90
53204;DHT22;39086;54.424;18.456;2022-07-23T04:05:25;16.10;99.90
53204;DHT22;39086;54.424;18.456;2022-07-23T04:06:28;16.20;99.90
53204;DHT22;39086;54.424;18.456;2022-07-23T04:08:34;16.00;99.90
53204;DHT22;39086;54.424;18.456;2022-07-23T04:09:38;16.10;99.90
53204;DHT22;39086;54.424;18.456;2022-07-23T04:10:51;16.20;99.90
53204;DHT22;39086;54.424;18.456;2022-07-23T04:11:54;16.20;99.90
53204;DHT22;39086;54.424;18.456;2022-07-23T04:12:57;16.20;99.90
53204;DHT22;39086;54.424;18.456;2022-07-23T04:14:00;16.20;99.90
53204;DHT22;39086;54.424;18.456;2022-07-23T04:15:09;16.20;99.90
53204;DHT22;39086;54.424;18.456;2022-07-23T04:16:19;16.20;99.90
53204;DHT22;39086;54.424;18.456;2022-07-23T04:17:22;16.10;99.90
53204;DHT22;39086;54.424;18.456;2022-07-23T04:18:26;16.20;99.90
53204;DHT22;39086;54.424;18.456;2022-07-23T04:19:28;16.30;99.90
53204;DHT22;39086;54.424;18.456;2022-07-23T04:20:38;16.30;99.90
53204;DHT22;39086;54.424;18.456;2022-07-23T04:21:55;16.20;99.90
53204;DHT22;39086;54.424;18.456;2022-07-23T04:22:57;16.30;99.90
53204;DHT22;39086;54.424;18.456;2022-07-23T04:24:00;16.20;99.90
53204;DHT22;39086;54.424;18.456;2022-07-23T04:25:05;16.30;99.90
53204;DHT22;39086;54.424;18.456;2022-07-23T04:26:15;16.30;99.90
53204;DHT22;39086;54.424;18.456;2022-07-23T04:27:19;16.20;99.90
53204;DHT22;39086;54.424;18.456;2022-07-23T04:28:21;16.30;99.90
53204;DHT22;39086;54.424;18.456;2022-07-23T04:29:24;16.30;99.90
53204;DHT22;39086;54.424;18.456;2022-07-23T04:30:27;16.40;99.90
53204;DHT22;39086;54.424;18.456;2022-07-23T04:31:37;16.30;99.90
53204;DHT22;39086;54.424;18.456;2022-07-23T04:32:39;16.30;99.90
53204;DHT22;39086;54.424;18.456;2022-07-23T04:33:43;16.30;99.90
53204;DHT22;39086;54.424;18.456;2022-07-23T04:34:45;16.40;99.90
53204;DHT22;39086;54.424;18.456;2022-07-23T04:35:48;16.40;99.90
53204;DHT22;39086;54.424;18.456;2022-07-23T04:36:57;16.40;99.90
53204;DHT22;39086;54.424;18.456;2022-07-23T04:38:00;16.40;99.90
53204;DHT22;39086;54.424;18.456;2022-07-23T04:39:03;16.40;99.90
53204;DHT22;39086;54.424;18.456;2022-07-23T04:40:09;16.40;99.90
53204;DHT22;39086;54.424;18.456;2022-07-23T04:41:13;16.50;99.90
53204;DHT22;39086;54.424;18.456;2022-07-23T04:42:23;16.40;99.90
53204;DHT22;39086;54.424;18.456;2022-07-23T04:43:25;16.50;99.90
53204;DHT22;39086;54.424;18.456;2022-07-23T04:44:29;16.50;99.90
53204;DHT22;39086;54.424;18.456;2022-07-23T04:45:31;16.70;99.90
53204;DHT22;39086;54.424;18.456;2022-07-23T04:46:41;16.60;99.90
53204;DHT22;39086;54.424;18.456;2022-07-23T04:47:45;16.60;99.90
53204;DHT22;39086;54.424;18.456;2022-07-23T04:48:47;16.50;99.90
53204;DHT22;39086;54.424;18.456;2022-07-23T04:49:50;16.60;99.90
53204;DHT22;39086;54.424;18.456;2022-07-23T04:50:53;16.50;99.90
53204;DHT22;39086;54.424;18.456;2022-07-23T04:52:02;16.60;99.90
53204;DHT22;39086;54.424;18.456;2022-07-23T04:53:05;16.80;99.90
53204;DHT22;39086;54.424;18.456;2022-07-23T04:54:08;16.70;99.90
53204;DHT22;39086;54.424;18.456;2022-07-23T04:55:12;16.90;99.90
53204;DHT22;39086;54.424;18.456;2022-07-23T04:56:15;16.70;99.90
53204;DHT22;39086;54.424;18.456;2022-07-23T04:57:26;16.90;99.90
53204;DHT22;39086;54.424;18.456;2022-07-23T04:58:28;16.70;99.90
53204;DHT22;39086;54.424;18.456;2022-07-23T04:59:33;16.70;99.90
53204;DHT22;39086;54.424;18.456;2022-07-23T05:00:35;16.70;99.90
53204;DHT22;39086;54.424;18.456;2022-07-23T05:01:39;16.80;99.90
53204;DHT22;39086;54.424;18.456;2022-07-23T05:02:50;16.90;99.90
53204;DHT22;39086;54.424;18.456;2022-07-23T05:03:52;17.00;99.90
53204;DHT22;39086;54.424;18.456;2022-07-23T05:04:56;16.80;99.90
53204;DHT22;39086;54.424;18.456;2022-07-23T05:05:58;16.80;99.90
53204;DHT22;39086;54.424;18.456;2022-07-23T05:07:02;16.60;99.90
53204;DHT22;39086;54.424;18.456;2022-07-23T05:08:11;17.00;99.90
53204;DHT22;39086;54.424;18.456;2022-07-23T05:09:15;16.80;99.90
53204;DHT22;39086;54.424;18.456;2022-07-23T05:10:19;17.00;99.90
53204;DHT22;39086;54.424;18.456;2022-07-23T05:11:22;17.00;99.90
53204;DHT22;39086;54.424;18.456;2022-07-23T05:12:28;17.10;99.90
53204;DHT22;39086;54.424;18.456;2022-07-23T05:13:38;17.00;99.90
53204;DHT22;39086;54.424;18.456;2022-07-23T05:14:40;16.90;99.90
53204;DHT22;39086;54.424;18.456;2022-07-23T05:15:50;16.90;99.90
53204;DHT22;39086;54.424;18.456;2022-07-23T05:16:54;17.20;99.90
53204;DHT22;39086;54.424;18.456;2022-07-23T05:18:02;17.20;99.90
53204;DHT22;39086;54.424;18.456;2022-07-23T05:19:05;17.00;99.90
53204;DHT22;39086;54.424;18.456;2022-07-23T05:20:15;17.20;99.90
53204;DHT22;39086;54.424;18.456;2022-07-23T05:21:31;17.20;99.90
53204;DHT22;39086;54.424;18.456;2022-07-23T05:22:34;17.30;99.90
53204;DHT22;39086;54.424;18.456;2022-07-23T05:23:37;17.20;99.90
53204;DHT22;39086;54.424;18.456;2022-07-23T05:24:40;16.90;99.90
53204;DHT22;39086;54.424;18.456;2022-07-23T05:25:44;17.20;99.90
53204;DHT22;39086;54.424;18.456;2022-07-23T05:26:54;17.20;99.90
53204;DHT22;39086;54.424;18.456;2022-07-23T05:28:00;17.30;99.90
53204;DHT22;39086;54.424;18.456;2022-07-23T05:29:02;17.20;99.90
53204;DHT22;39086;54.424;18.456;2022-07-23T05:30:12;17.50;99.90
53204;DHT22;39086;54.424;18.456;2022-07-23T05:31:15;17.30;99.90
53204;DHT22;39086;54.424;18.456;2022-07-23T05:32:18;17.20;99.90
53204;DHT22;39086;54.424;18.456;2022-07-23T05:33:27;17.40;99.90
53204;DHT22;39086;54.424;18.456;2022-07-23T05:34:30;17.50;99.90
53204;DHT22;39086;54.424;18.456;2022-07-23T05:35:33;17.40;99.90
53204;DHT22;39086;54.424;18.456;2022-07-23T05:36:43;17.40;99.90
53204;DHT22;39086;54.424;18.456;2022-07-23T05:37:46;17.40;99.90
53204;DHT22;39086;54.424;18.456;2022-07-23T05:38:49;17.50;99.90
53204;DHT22;39086;54.424;18.456;2022-07-23T05:39:52;17.50;99.90
53204;DHT22;39086;54.424;18.456;2022-07-23T05:40:56;17.40;99.90
53204;DHT22;39086;54.424;18.456;2022-07-23T05:42:05;17.50;99.90
53204;DHT22;39086;54.424;18.456;2022-07-23T05:43:08;17.60;99.90
53204;DHT22;39086;54.424;18.456;2022-07-23T05:44:11;17.60;99.90
53204;DHT22;39086;54.424;18.456;2022-07-23T05:45:13;17.70;99.90
53204;DHT22;39086;54.424;18.456;2022-07-23T05:46:17;17.70;99.90
53204;DHT22;39086;54.424;18.456;2022-07-23T05:47:26;17.70;99.90
53204;DHT22;39086;54.424;18.456;2022-07-23T05:48:29;17.80;99.90
53204;DHT22;39086;54.424;18.456;2022-07-23T05:49:32;17.80;99.90
53204;DHT22;39086;54.424;18.456;2022-07-23T05:50:35;17.80;99.90
53204;DHT22;39086;54.424;18.456;2022-07-23T05:51:38;17.90;99.90
53204;DHT22;39086;54.424;18.456;2022-07-23T05:52:47;17.90;99.90
53204;DHT22;39086;54.424;18.456;2022-07-23T05:53:51;18.00;99.90
53204;DHT22;39086;54.424;18.456;2022-07-23T05:54:54;18.00;99.90
53204;DHT22;39086;54.424;18.456;2022-07-23T05:55:58;18.00;99.90
53204;DHT22;39086;54.424;18.456;2022-07-23T05:57:01;17.90;99.90
53204;DHT22;39086;54.424;18.456;2022-07-23T05:58:10;18.00;99.90
53204;DHT22;39086;54.424;18.456;2022-07-23T05:59:13;18.00;99.90
53204;DHT22;39086;54.424;18.456;2022-07-23T06:00:17;18.00;99.90
53204;DHT22;39086;54.424;18.456;2022-07-23T06:01:20;18.00;99.90
53204;DHT22;39086;54.424;18.456;2022-07-23T06:02:22;18.00;99.90
53204;DHT22;39086;54.424;18.456;2022-07-23T06:03:32;18.00;99.90
53204;DHT22;39086;54.424;18.456;2022-07-23T06:04:35;18.00;99.90
53204;DHT22;39086;54.424;18.456;2022-07-23T06:05:38;18.00;99.90
53204;DHT22;39086;54.424;18.456;2022-07-23T06:06:40;18.10;99.90
53204;DHT22;39086;54.424;18.456;2022-07-23T06:07:44;18.20;99.90
53204;DHT22;39086;54.424;18.456;2022-07-23T06:08:53;18.10;99.90
53204;DHT22;39086;54.424;18.456;2022-07-23T06:09:56;18.20;99.90
53204;DHT22;39086;54.424;18.456;2022-07-23T06:11:06;18.20;99.90
53204;DHT22;39086;54.424;18.456;2022-07-23T06:12:16;18.10;99.90
53204;DHT22;39086;54.424;18.456;2022-07-23T06:13:19;18.20;99.90
53204;DHT22;39086;54.424;18.456;2022-07-23T06:14:22;18.20;99.90
53204;DHT22;39086;54.424;18.456;2022-07-23T06:15:25;18.30;99.90
53204;DHT22;39086;54.424;18.456;2022-07-23T06:16:34;18.20;99.90
53204;DHT22;39086;54.424;18.456;2022-07-23T06:17:37;18.30;99.90
53204;DHT22;39086;54.424;18.456;2022-07-23T06:18:41;18.40;99.90
53204;DHT22;39086;54.424;18.456;2022-07-23T06:19:51;18.30;99.90
53204;DHT22;39086;54.424;18.456;2022-07-23T06:20:54;18.30;99.90
53204;DHT22;39086;54.424;18.456;2022-07-23T06:22:23;18.30;99.90
53204;DHT22;39086;54.424;18.456;2022-07-23T06:23:26;18.40;99.90
53204;DHT22;39086;54.424;18.456;2022-07-23T06:24:29;18.30;99.90
53204;DHT22;39086;54.424;18.456;2022-07-23T06:25:32;18.40;99.90
53204;DHT22;39086;54.424;18.456;2022-07-23T06:26:36;18.40;99.90
53204;DHT22;39086;54.424;18.456;2022-07-23T06:27:47;18.50;99.90
53204;DHT22;39086;54.424;18.456;2022-07-23T06:28:49;18.50;99.90
53204;DHT22;39086;54.424;18.456;2022-07-23T06:29:53;18.50;99.90
53204;DHT22;39086;54.424;18.456;2022-07-23T06:30:55;18.50;99.90
53204;DHT22;39086;54.424;18.456;2022-07-23T06:31:59;18.60;99.90
53204;DHT22;39086;54.424;18.456;2022-07-23T06:33:07;18.70;99.90
53204;DHT22;39086;54.424;18.456;2022-07-23T06:34:11;18.70;99.90
53204;DHT22;39086;54.424;18.456;2022-07-23T06:35:13;18.60;99.90
53204;DHT22;39086;54.424;18.456;2022-07-23T06:36:17;18.70;99.90
53204;DHT22;39086;54.424;18.456;2022-07-23T06:37:19;18.80;99.90
53204;DHT22;39086;54.424;18.456;2022-07-23T06:38:30;18.80;99.90
53204;DHT22;39086;54.424;18.456;2022-07-23T06:39:39;18.90;99.90
53204;DHT22;39086;54.424;18.456;2022-07-23T06:40:43;18.90;99.90
53204;DHT22;39086;54.424;18.456;2022-07-23T06:41:48;18.90;99.90
53204;DHT22;39086;54.424;18.456;2022-07-23T06:43:02;18.90;99.90
53204;DHT22;39086;54.424;18.456;2022-07-23T06:44:05;19.00;99.90
53204;DHT22;39086;54.424;18.456;2022-07-23T06:45:14;19.10;99.90
53204;DHT22;39086;54.424;18.456;2022-07-23T06:46:17;19.00;99.90
53204;DHT22;39086;54.424;18.456;2022-07-23T06:47:21;19.10;99.90
53204;DHT22;39086;54.424;18.456;2022-07-23T06:48:24;19.10;99.90
53204;DHT22;39086;54.424;18.456;2022-07-23T06:49:26;19.00;99.90